sensor_id;sensor_type;location;lat;lon;timestamp;pressure;altitude;pressure_sealevel;temperature;humidity
9676;BME280;4876;42.656;23.292;2024-02-28T00:02:23;94716.59;;;7.54;67.44
9676;BME280;4876;42.656;23.292;2024-02-28T00:04:49;94715.44;;;7.57;66.65
9676;BME280;4876;42.656;23.292;2024-02-28T00:07:14;94709.19;;;7.56;66.61
9676;BME280;4876;42.656;23.292;2024-02-28T00:09:40;94718.94;;;7.57;67.39
9676;BME280;4876;42.656;23.292;2024-02-28T00:12:05;94718.53;;;7.61;66.10
9676;BME280;4876;42.656;23.292;2024-02-28T00:14:31;94721.69;;;7.57;66.63
9676;BME280;4876;42.656;23.292;2024-02-28T00:16:56;94718.66;;;7.63;66.82
9676;BME280;4876;42.656;23.292;2024-02-28T00:19:22;94719.41;;;7.63;66.08
9676;BME280;4876;42.656;23.292;2024-02-28T00:21:50;94717.41;;;7.73;66.92
9676;BME280;4876;42.656;23.292;2024-02-28T00:24:15;94724.69;;;7.78;66.63
9676;BME280;4876;42.656;23.292;2024-02-28T00:26:42;94726.16;;;7.79;66.70
9676;BME280;4876;42.656;23.292;2024-02-28T00:29:08;94728.34;;;7.81;66.97
9676;BME280;4876;42.656;23.292;2024-02-28T00:31:33;94719.75;;;7.77;66.49
9676;BME280;4876;42.656;23.292;2024-02-28T00:33:59;94715.53;;;7.76;66.58
9676;BME280;4876;42.656;23.292;2024-02-28T00:36:24;94723.41;;;7.79;65.83
9676;BME280;4876;42.656;23.292;2024-02-28T00:38:50;94724.09;;;7.80;65.98
9676;BME280;4876;42.656;23.292;2024-02-28T00:41:16;94721.19;;;7.78;65.60
9676;BME280;4876;42.656;23.292;2024-02-28T00:43:41;94713.44;;;7.67;65.86
9676;BME280;4876;42.656;23.292;2024-02-28T00:46:07;94717.38;;;7.64;67.23
9676;BME280;4876;42.656;23.292;2024-02-28T00:48:37;94715.88;;;7.53;66.94
9676;BME280;4876;42.656;23.292;2024-02-28T00:51:02;94718.63;;;7.53;67.10
9676;BME280;4876;42.656;23.292;2024-02-28T00:53:30;94716.03;;;7.55;67.26
9676;BME280;4876;42.656;23.292;2024-02-28T00:55:55;94705.72;;;7.56;66.70
9676;BME280;4876;42.656;23.292;2024-02-28T00:58:21;94714.88;;;7.58;66.77
9676;BME280;4876;42.656;23.292;2024-02-28T01:00:49;94719.34;;;7.54;67.00
9676;BME280;4876;42.656;23.292;2024-02-28T01:03:15;94712.94;;;7.51;66.26
9676;BME280;4876;42.656;23.292;2024-02-28T01:05:41;94723.94;;;7.42;67.38
9676;BME280;4876;42.656;23.292;2024-02-28T01:08:07;94715.34;;;7.37;67.42
9676;BME280;4876;42.656;23.292;2024-02-28T01:10:33;94719.81;;;7.33;67.26
9676;BME280;4876;42.656;23.292;2024-02-28T01:12:59;94722.16;;;7.36;67.23
9676;BME280;4876;42.656;23.292;2024-02-28T01:15:25;94722.72;;;7.35;67.11
9676;BME280;4876;42.656;23.292;2024-02-28T01:17:50;94728.56;;;7.39;67.14
9676;BME280;4876;42.656;23.292;2024-02-28T01:20:16;94721.91;;;7.42;66.83
9676;BME280;4876;42.656;23.292;2024-02-28T01:22:41;94725.34;;;7.33;67.99
9676;BME280;4876;42.656;23.292;2024-02-28T01:25:07;94720.03;;;7.18;68.24
9676;BME280;4876;42.656;23.292;2024-02-28T01:27:33;94729.50;;;7.24;67.51
9676;BME280;4876;42.656;23.292;2024-02-28T01:30:16;94731.56;;;7.07;68.79
9676;BME280;4876;42.656;23.292;2024-02-28T01:32:42;94724.66;;;6.98;68.77
9676;BME280;4876;42.656;23.292;2024-02-28T01:35:08;94727.81;;;7.12;67.97
9676;BME280;4876;42.656;23.292;2024-02-28T01:37:34;94725.38;;;7.16;67.27
9676;BME280;4876;42.656;23.292;2024-02-28T01:40:00;94737.41;;;7.11;68.47
9676;BME280;4876;42.656;23.292;2024-02-28T01:42:25;94740.41;;;7.05;68.00
9676;BME280;4876;42.656;23.292;2024-02-28T01:44:51;94737.66;;;7.05;68.40
9676;BME280;4876;42.656;23.292;2024-02-28T01:47:17;94734.31;;;7.07;67.72
9676;BME280;4876;42.656;23.292;2024-02-28T01:49:43;94737.97;;;7.09;69.00
9676;BME280;4876;42.656;23.292;2024-02-28T01:52:11;94732.59;;;7.11;68.47
9676;BME280;4876;42.656;23.292;2024-02-28T01:54:38;94738.03;;;7.19;67.99
9676;BME280;4876;42.656;23.292;2024-02-28T01:57:04;94745.09;;;7.12;68.45
9676;BME280;4876;42.656;23.292;2024-02-28T01:59:31;94738.84;;;7.12;68.40
9676;BME280;4876;42.656;23.292;2024-02-28T02:01:57;94746.13;;;7.17;68.03
9676;BME280;4876;42.656;23.292;2024-02-28T02:04:23;94749.81;;;7.02;68.02
9676;BME280;4876;42.656;23.292;2024-02-28T02:06:48;94742.78;;;6.92;69.76
9676;BME280;4876;42.656;23.292;2024-02-28T02:09:15;94743.97;;;6.98;68.82
9676;BME280;4876;42.656;23.292;2024-02-28T02:11:41;94743.16;;;7.05;68.14
9676;BME280;4876;42.656;23.292;2024-02-28T02:14:07;94739.69;;;7.05;68.50
9676;BME280;4876;42.656;23.292;2024-02-28T02:16:32;94741.69;;;7.04;67.50
9676;BME280;4876;42.656;23.292;2024-02-28T02:18:58;94741.06;;;7.13;68.25
9676;BME280;4876;42.656;23.292;2024-02-28T02:21:29;94737.56;;;6.96;68.08
9676;BME280;4876;42.656;23.292;2024-02-28T02:23:55;94734.16;;;6.88;68.58
9676;BME280;4876;42.656;23.292;2024-02-28T02:26:21;94726.63;;;6.88;68.61
9676;BME280;4876;42.656;23.292;2024-02-28T02:28:46;94739.88;;;6.90;69.19
9676;BME280;4876;42.656;23.292;2024-02-28T02:31:13;94733.28;;;6.85;69.33
9676;BME280;4876;42.656;23.292;2024-02-28T02:33:39;94731.09;;;6.84;68.97
9676;BME280;4876;42.656;23.292;2024-02-28T02:36:04;94737.59;;;6.78;69.08
9676;BME280;4876;42.656;23.292;2024-02-28T02:38:30;94737.19;;;6.82;69.20
9676;BME280;4876;42.656;23.292;2024-02-28T02:40:55;94740.66;;;6.83;69.37
9676;BME280;4876;42.656;23.292;2024-02-28T02:43:21;94742.13;;;6.84;69.25
9676;BME280;4876;42.656;23.292;2024-02-28T02:45:46;94739.53;;;6.86;69.59
9676;BME280;4876;42.656;23.292;2024-02-28T02:48:12;94745.69;;;6.94;69.20
9676;BME280;4876;42.656;23.292;2024-02-28T02:50:37;94742.63;;;6.90;68.79
9676;BME280;4876;42.656;23.292;2024-02-28T02:53:03;94740.44;;;6.71;69.16
9676;BME280;4876;42.656;23.292;2024-02-28T02:55:29;94742.38;;;6.78;69.34
9676;BME280;4876;42.656;23.292;2024-02-28T02:57:55;94731.69;;;6.82;69.32
9676;BME280;4876;42.656;23.292;2024-02-28T03:00:22;94739.53;;;6.86;69.35
9676;BME280;4876;42.656;23.292;2024-02-28T03:02:47;94731.41;;;6.88;68.47
9676;BME280;4876;42.656;23.292;2024-02-28T03:05:13;94744.63;;;6.89;69.35
9676;BME280;4876;42.656;23.292;2024-02-28T03:07:39;94737.66;;;6.88;68.87
9676;BME280;4876;42.656;23.292;2024-02-28T03:10:05;94739.28;;;6.91;69.11
9676;BME280;4876;42.656;23.292;2024-02-28T03:12:31;94740.31;;;6.96;68.49
9676;BME280;4876;42.656;23.292;2024-02-28T03:14:57;94746.03;;;6.98;68.80
9676;BME280;4876;42.656;23.292;2024-02-28T03:17:22;94743.06;;;6.96;69.07
9676;BME280;4876;42.656;23.292;2024-02-28T03:19:48;94731.34;;;6.95;68.85
9676;BME280;4876;42.656;23.292;2024-02-28T03:22:14;94742.69;;;6.99;68.55
9676;BME280;4876;42.656;23.292;2024-02-28T03:24:39;94745.59;;;7.01;68.95
9676;BME280;4876;42.656;23.292;2024-02-28T03:27:05;94743.06;;;6.96;68.94
9676;BME280;4876;42.656;23.292;2024-02-28T03:29:30;94743.31;;;6.90;68.32
9676;BME280;4876;42.656;23.292;2024-02-28T03:31:58;94748.84;;;6.56;70.60
9676;BME280;4876;42.656;23.292;2024-02-28T03:34:23;94751.19;;;6.59;70.53
9676;BME280;4876;42.656;23.292;2024-02-28T03:36:49;94747.47;;;6.64;70.11
9676;BME280;4876;42.656;23.292;2024-02-28T03:39:14;94745.59;;;6.67;69.81
9676;BME280;4876;42.656;23.292;2024-02-28T03:41:40;94753.97;;;6.76;70.35
9676;BME280;4876;42.656;23.292;2024-02-28T03:44:06;94751.22;;;6.76;69.68
9676;BME280;4876;42.656;23.292;2024-02-28T03:46:31;94758.19;;;6.77;69.66
9676;BME280;4876;42.656;23.292;2024-02-28T03:48:57;94758.84;;;6.68;70.60
9676;BME280;4876;42.656;23.292;2024-02-28T03:51:22;94753.56;;;6.63;70.74
9676;BME280;4876;42.656;23.292;2024-02-28T03:53:48;94761.09;;;6.62;69.97
9676;BME280;4876;42.656;23.292;2024-02-28T03:56:24;94757.44;;;6.60;70.27
9676;BME280;4876;42.656;23.292;2024-02-28T03:58:50;94758.50;;;6.64;69.60
9676;BME280;4876;42.656;23.292;2024-02-28T04:01:16;94766.28;;;6.58;70.60
9676;BME280;4876;42.656;23.292;2024-02-28T04:03:42;94760.94;;;6.60;70.36
9676;BME280;4876;42.656;23.292;2024-02-28T04:06:07;94754.59;;;6.67;70.22
9676;BME280;4876;42.656;23.292;2024-02-28T04:08:33;94751.53;;;6.63;69.39
9676;BME280;4876;42.656;23.292;2024-02-28T04:10:59;94754.94;;;6.71;69.93
9676;BME280;4876;42.656;23.292;2024-02-28T04:13:24;94751.63;;;6.73;69.44
9676;BME280;4876;42.656;23.292;2024-02-28T04:15:50;94749.25;;;6.69;69.30
9676;BME280;4876;42.656;23.292;2024-02-28T04:18:15;94751.13;;;6.67;70.73
9676;BME280;4876;42.656;23.292;2024-02-28T04:20:41;94754.06;;;6.69;69.93
9676;BME280;4876;42.656;23.292;2024-02-28T04:23:06;94754.94;;;6.71;69.94
9676;BME280;4876;42.656;23.292;2024-02-28T04:25:32;94747.97;;;6.70;69.39
9676;BME280;4876;42.656;23.292;2024-02-28T04:27:57;94749.34;;;6.45;70.05
9676;BME280;4876;42.656;23.292;2024-02-28T04:30:23;94750.94;;;6.31;70.18
9676;BME280;4876;42.656;23.292;2024-02-28T04:32:48;94743.84;;;6.20;71.13
9676;BME280;4876;42.656;23.292;2024-02-28T04:35:15;94751.53;;;6.22;71.39
9676;BME280;4876;42.656;23.292;2024-02-28T04:37:44;94748.25;;;6.23;71.57
9676;BME280;4876;42.656;23.292;2024-02-28T04:40:11;94750.78;;;6.29;72.34
9676;BME280;4876;42.656;23.292;2024-02-28T04:42:36;94749.22;;;6.35;72.62
9676;BME280;4876;42.656;23.292;2024-02-28T04:45:03;94752.94;;;6.30;71.37
9676;BME280;4876;42.656;23.292;2024-02-28T04:47:29;94756.28;;;6.29;72.57
9676;BME280;4876;42.656;23.292;2024-02-28T04:49:54;94760.25;;;6.35;72.39
9676;BME280;4876;42.656;23.292;2024-02-28T04:52:20;94752.16;;;6.37;71.52
9676;BME280;4876;42.656;23.292;2024-02-28T04:54:45;94760.00;;;6.41;71.79
9676;BME280;4876;42.656;23.292;2024-02-28T04:57:11;94752.63;;;6.43;71.03
9676;BME280;4876;42.656;23.292;2024-02-28T04:59:36;94762.38;;;6.44;70.92
9676;BME280;4876;42.656;23.292;2024-02-28T05:02:02;94771.69;;;6.49;70.93
9676;BME280;4876;42.656;23.292;2024-02-28T05:04:28;94778.09;;;6.51;71.48
9676;BME280;4876;42.656;23.292;2024-02-28T05:06:54;94770.13;;;6.38;71.58
9676;BME280;4876;42.656;23.292;2024-02-28T05:09:19;94770.00;;;6.53;71.25
9676;BME280;4876;42.656;23.292;2024-02-28T05:11:45;94777.28;;;6.41;71.91
9676;BME280;4876;42.656;23.292;2024-02-28T05:14:10;94785.53;;;6.41;71.53
9676;BME280;4876;42.656;23.292;2024-02-28T05:16:36;94776.31;;;6.46;70.82
9676;BME280;4876;42.656;23.292;2024-02-28T05:19:02;94783.59;;;6.51;71.08
9676;BME280;4876;42.656;23.292;2024-02-28T05:21:29;94787.84;;;6.28;70.81
9676;BME280;4876;42.656;23.292;2024-02-28T05:23:55;94794.72;;;6.19;71.91
9676;BME280;4876;42.656;23.292;2024-02-28T05:26:20;94791.13;;;6.34;71.70
9676;BME280;4876;42.656;23.292;2024-02-28T05:28:46;94792.59;;;6.35;71.68
9676;BME280;4876;42.656;23.292;2024-02-28T05:31:22;94801.69;;;6.45;71.34
9676;BME280;4876;42.656;23.292;2024-02-28T05:33:53;94799.38;;;6.58;70.39
9676;BME280;4876;42.656;23.292;2024-02-28T05:36:23;94803.91;;;6.63;70.83
9676;BME280;4876;42.656;23.292;2024-02-28T05:38:49;94804.22;;;6.67;70.24
9676;BME280;4876;42.656;23.292;2024-02-28T05:41:16;94815.44;;;6.87;69.89
9676;BME280;4876;42.656;23.292;2024-02-28T05:43:42;94819.50;;;7.03;69.20
9676;BME280;4876;42.656;23.292;2024-02-28T05:46:08;94819.19;;;7.16;69.02
9676;BME280;4876;42.656;23.292;2024-02-28T05:48:33;94826.88;;;7.34;69.26
9676;BME280;4876;42.656;23.292;2024-02-28T05:51:05;94827.50;;;7.43;68.53
9676;BME280;4876;42.656;23.292;2024-02-28T05:53:38;94833.97;;;7.55;68.02
9676;BME280;4876;42.656;23.292;2024-02-28T05:56:14;94822.94;;;7.55;67.80
9676;BME280;4876;42.656;23.292;2024-02-28T05:58:46;94823.34;;;7.51;68.08
9676;BME280;4876;42.656;23.292;2024-02-28T06:01:18;94825.97;;;7.76;67.48
9676;BME280;4876;42.656;23.292;2024-02-28T06:03:48;94838.56;;;7.96;66.73
9676;BME280;4876;42.656;23.292;2024-02-28T06:06:13;94840.41;;;8.11;66.99
9676;BME280;4876;42.656;23.292;2024-02-28T06:08:39;94840.78;;;8.24;65.90
9676;BME280;4876;42.656;23.292;2024-02-28T06:11:08;94845.97;;;7.67;69.01
9676;BME280;4876;42.656;23.292;2024-02-28T06:13:35;94837.94;;;7.61;68.37
9676;BME280;4876;42.656;23.292;2024-02-28T06:16:01;94844.00;;;8.03;66.99
9676;BME280;4876;42.656;23.292;2024-02-28T06:18:27;94844.44;;;8.00;67.79
9676;BME280;4876;42.656;23.292;2024-02-28T06:20:53;94850.94;;;7.95;68.27
9676;BME280;4876;42.656;23.292;2024-02-28T06:23:20;94845.47;;;8.05;67.70
9676;BME280;4876;42.656;23.292;2024-02-28T06:25:46;94852.56;;;7.98;68.38
9676;BME280;4876;42.656;23.292;2024-02-28T06:28:11;94848.88;;;8.22;67.32
9676;BME280;4876;42.656;23.292;2024-02-28T06:30:37;94849.81;;;8.61;65.87
9676;BME280;4876;42.656;23.292;2024-02-28T06:33:03;94861.47;;;8.33;67.27
9676;BME280;4876;42.656;23.292;2024-02-28T06:35:29;94858.09;;;8.61;66.74
9676;BME280;4876;42.656;23.292;2024-02-28T06:37:55;94858.66;;;8.50;67.08
9676;BME280;4876;42.656;23.292;2024-02-28T06:40:20;94862.03;;;8.58;65.87
9676;BME280;4876;42.656;23.292;2024-02-28T06:42:46;94858.09;;;7.98;68.66
9676;BME280;4876;42.656;23.292;2024-02-28T06:45:12;94857.53;;;7.82;68.04
9676;BME280;4876;42.656;23.292;2024-02-28T06:47:37;94861.19;;;8.38;67.11
9676;BME280;4876;42.656;23.292;2024-02-28T06:50:03;94857.72;;;8.74;66.21
9676;BME280;4876;42.656;23.292;2024-02-28T06:52:30;94860.19;;;8.34;67.98
9676;BME280;4876;42.656;23.292;2024-02-28T06:54:55;94865.41;;;8.76;66.08
9676;BME280;4876;42.656;23.292;2024-02-28T06:57:21;94856.00;;;8.42;67.50
9676;BME280;4876;42.656;23.292;2024-02-28T06:59:46;94864.00;;;8.84;66.06
9676;BME280;4876;42.656;23.292;2024-02-28T07:02:12;94863.66;;;8.80;65.89
9676;BME280;4876;42.656;23.292;2024-02-28T07:04:38;94855.34;;;8.61;66.79
9676;BME280;4876;42.656;23.292;2024-02-28T07:07:04;94851.56;;;8.66;65.96
9676;BME280;4876;42.656;23.292;2024-02-28T07:09:31;94861.84;;;9.11;65.86
9676;BME280;4876;42.656;23.292;2024-02-28T07:11:58;94860.97;;;9.38;63.27
9676;BME280;4876;42.656;23.292;2024-02-28T07:14:24;94860.69;;;9.62;62.91
9676;BME280;4876;42.656;23.292;2024-02-28T07:16:49;94858.91;;;9.00;63.71
9676;BME280;4876;42.656;23.292;2024-02-28T07:19:17;94859.50;;;8.98;64.41
9676;BME280;4876;42.656;23.292;2024-02-28T07:21:43;94861.22;;;8.84;64.83
9676;BME280;4876;42.656;23.292;2024-02-28T07:24:09;94864.06;;;8.57;65.03
9676;BME280;4876;42.656;23.292;2024-02-28T07:26:35;94863.25;;;8.93;63.69
9676;BME280;4876;42.656;23.292;2024-02-28T07:29:00;94860.69;;;9.14;62.99
9676;BME280;4876;42.656;23.292;2024-02-28T07:31:26;94871.91;;;9.36;62.15
9676;BME280;4876;42.656;23.292;2024-02-28T07:33:51;94869.75;;;9.63;61.17
9676;BME280;4876;42.656;23.292;2024-02-28T07:36:17;94872.94;;;9.69;61.63
9676;BME280;4876;42.656;23.292;2024-02-28T07:38:43;94871.47;;;9.49;63.11
9676;BME280;4876;42.656;23.292;2024-02-28T07:41:08;94868.28;;;9.23;63.66
9676;BME280;4876;42.656;23.292;2024-02-28T07:43:34;94865.19;;;9.10;64.06
9676;BME280;4876;42.656;23.292;2024-02-28T07:46:12;94873.25;;;9.35;63.39
9676;BME280;4876;42.656;23.292;2024-02-28T07:48:38;94862.16;;;9.54;62.69
9676;BME280;4876;42.656;23.292;2024-02-28T07:51:07;94870.47;;;9.63;61.87
9676;BME280;4876;42.656;23.292;2024-02-28T07:53:33;94872.38;;;9.61;61.81
9676;BME280;4876;42.656;23.292;2024-02-28T07:55:59;94869.72;;;9.44;62.67
9676;BME280;4876;42.656;23.292;2024-02-28T07:58:24;94868.56;;;9.66;62.51
9676;BME280;4876;42.656;23.292;2024-02-28T08:00:51;94868.69;;;9.97;61.53
9676;BME280;4876;42.656;23.292;2024-02-28T08:03:19;94854.91;;;10.37;60.54
9676;BME280;4876;42.656;23.292;2024-02-28T08:05:45;94867.59;;;10.71;58.39
9676;BME280;4876;42.656;23.292;2024-02-28T08:08:11;94861.81;;;10.57;58.94
9676;BME280;4876;42.656;23.292;2024-02-28T08:10:37;94868.44;;;10.42;59.08
9676;BME280;4876;42.656;23.292;2024-02-28T08:13:04;94863.81;;;10.66;58.53
9676;BME280;4876;42.656;23.292;2024-02-28T08:15:29;94851.50;;;10.79;58.70
9676;BME280;4876;42.656;23.292;2024-02-28T08:17:55;94854.72;;;11.06;57.41
9676;BME280;4876;42.656;23.292;2024-02-28T08:20:21;94853.25;;;11.05;57.53
9676;BME280;4876;42.656;23.292;2024-02-28T08:22:46;94854.63;;;10.94;58.25
9676;BME280;4876;42.656;23.292;2024-02-28T08:25:12;94861.63;;;10.95;58.53
9676;BME280;4876;42.656;23.292;2024-02-28T08:27:38;94852.97;;;11.22;57.44
9676;BME280;4876;42.656;23.292;2024-02-28T08:30:05;94851.25;;;11.17;58.01
9676;BME280;4876;42.656;23.292;2024-02-28T08:32:33;94852.06;;;11.08;57.10
9676;BME280;4876;42.656;23.292;2024-02-28T08:34:59;94852.06;;;11.29;56.74
9676;BME280;4876;42.656;23.292;2024-02-28T08:37:25;94853.00;;;10.70;58.15
9676;BME280;4876;42.656;23.292;2024-02-28T08:39:52;94848.88;;;11.02;58.11
9676;BME280;4876;42.656;23.292;2024-02-28T08:42:20;94847.94;;;11.09;57.42
9676;BME280;4876;42.656;23.292;2024-02-28T08:44:45;94847.72;;;11.59;56.98
9676;BME280;4876;42.656;23.292;2024-02-28T08:47:13;94848.44;;;11.48;56.95
9676;BME280;4876;42.656;23.292;2024-02-28T08:49:39;94841.66;;;11.72;55.88
9676;BME280;4876;42.656;23.292;2024-02-28T08:52:05;94842.09;;;12.01;54.83
9676;BME280;4876;42.656;23.292;2024-02-28T08:54:30;94839.59;;;11.51;56.63
9676;BME280;4876;42.656;23.292;2024-02-28T08:56:56;94844.50;;;11.41;56.65
9676;BME280;4876;42.656;23.292;2024-02-28T08:59:21;94841.72;;;11.62;56.20
9676;BME280;4876;42.656;23.292;2024-02-28T09:01:48;94837.53;;;11.40;56.54
9676;BME280;4876;42.656;23.292;2024-02-28T09:04:13;94844.94;;;11.59;55.77
9676;BME280;4876;42.656;23.292;2024-02-28T09:06:39;94844.94;;;11.26;56.43
9676;BME280;4876;42.656;23.292;2024-02-28T09:09:05;94846.88;;;11.56;56.06
9676;BME280;4876;42.656;23.292;2024-02-28T09:11:30;94843.28;;;11.87;55.32
9676;BME280;4876;42.656;23.292;2024-02-28T09:13:56;94850.16;;;11.86;55.14
9676;BME280;4876;42.656;23.292;2024-02-28T09:16:21;94852.59;;;11.91;55.49
9676;BME280;4876;42.656;23.292;2024-02-28T09:18:47;94849.25;;;12.04;55.72
9676;BME280;4876;42.656;23.292;2024-02-28T09:21:12;94847.84;;;12.26;54.71
9676;BME280;4876;42.656;23.292;2024-02-28T09:23:38;94842.31;;;11.94;55.07
9676;BME280;4876;42.656;23.292;2024-02-28T09:26:04;94836.63;;;12.48;54.08
9676;BME280;4876;42.656;23.292;2024-02-28T09:28:31;94846.06;;;12.54;53.76
9676;BME280;4876;42.656;23.292;2024-02-28T09:30:56;94845.84;;;12.85;52.74
9676;BME280;4876;42.656;23.292;2024-02-28T09:33:22;94837.25;;;12.58;54.34
9676;BME280;4876;42.656;23.292;2024-02-28T09:35:48;94833.72;;;12.34;54.50
9676;BME280;4876;42.656;23.292;2024-02-28T09:38:14;94835.78;;;12.57;54.06
9676;BME280;4876;42.656;23.292;2024-02-28T09:40:39;94830.31;;;12.36;54.66
9676;BME280;4876;42.656;23.292;2024-02-28T09:43:06;94829.84;;;12.62;54.47
9676;BME280;4876;42.656;23.292;2024-02-28T09:45:36;94829.59;;;13.05;53.13
9676;BME280;4876;42.656;23.292;2024-02-28T09:48:02;94823.66;;;13.59;52.00
9676;BME280;4876;42.656;23.292;2024-02-28T09:50:29;94821.38;;;13.80;51.06
9676;BME280;4876;42.656;23.292;2024-02-28T09:52:55;94826.78;;;13.28;52.09
9676;BME280;4876;42.656;23.292;2024-02-28T09:55:21;94820.03;;;13.56;51.94
9676;BME280;4876;42.656;23.292;2024-02-28T09:57:50;94816.44;;;13.42;51.57
9676;BME280;4876;42.656;23.292;2024-02-28T10:00:19;94819.88;;;13.29;52.21
9676;BME280;4876;42.656;23.292;2024-02-28T10:02:47;94817.47;;;13.12;52.27
9676;BME280;4876;42.656;23.292;2024-02-28T10:05:17;94815.63;;;13.28;51.95
9676;BME280;4876;42.656;23.292;2024-02-28T10:07:45;94811.16;;;13.23;52.05
9676;BME280;4876;42.656;23.292;2024-02-28T10:10:11;94812.06;;;13.14;52.14
9676;BME280;4876;42.656;23.292;2024-02-28T10:12:41;94817.25;;;13.19;52.00
9676;BME280;4876;42.656;23.292;2024-02-28T10:15:07;94812.53;;;13.59;50.68
9676;BME280;4876;42.656;23.292;2024-02-28T10:17:34;94810.41;;;13.34;51.32
9676;BME280;4876;42.656;23.292;2024-02-28T10:20:00;94807.06;;;13.24;52.32
9676;BME280;4876;42.656;23.292;2024-02-28T10:22:26;94802.66;;;13.69;51.08
9676;BME280;4876;42.656;23.292;2024-02-28T10:24:58;94801.81;;;13.92;50.27
9676;BME280;4876;42.656;23.292;2024-02-28T10:27:26;94800.81;;;13.74;50.48
9676;BME280;4876;42.656;23.292;2024-02-28T10:29:52;94792.38;;;13.60;50.75
9676;BME280;4876;42.656;23.292;2024-02-28T10:32:17;94790.81;;;13.57;50.41
9676;BME280;4876;42.656;23.292;2024-02-28T10:34:44;94787.81;;;13.78;49.15
9676;BME280;4876;42.656;23.292;2024-02-28T10:37:10;94785.75;;;14.18;48.72
9676;BME280;4876;42.656;23.292;2024-02-28T10:39:37;94781.28;;;13.99;49.69
9676;BME280;4876;42.656;23.292;2024-02-28T10:42:03;94779.88;;;14.25;48.90
9676;BME280;4876;42.656;23.292;2024-02-28T10:44:29;94773.72;;;14.27;48.10
9676;BME280;4876;42.656;23.292;2024-02-28T10:46:57;94757.72;;;14.41;47.34
9676;BME280;4876;42.656;23.292;2024-02-28T10:49:23;94751.63;;;14.44;47.65
9676;BME280;4876;42.656;23.292;2024-02-28T10:51:49;94765.50;;;14.17;48.35
9676;BME280;4876;42.656;23.292;2024-02-28T10:54:16;94762.91;;;14.07;46.71
9676;BME280;4876;42.656;23.292;2024-02-28T10:56:46;94760.50;;;13.63;48.60
9676;BME280;4876;42.656;23.292;2024-02-28T10:59:12;94773.00;;;13.87;48.56
9676;BME280;4876;42.656;23.292;2024-02-28T11:01:42;94767.16;;;14.08;47.59
9676;BME280;4876;42.656;23.292;2024-02-28T11:04:08;94763.72;;;13.96;47.09
9676;BME280;4876;42.656;23.292;2024-02-28T11:06:34;94765.22;;;14.11;46.90
9676;BME280;4876;42.656;23.292;2024-02-28T11:09:00;94753.84;;;14.21;46.15
9676;BME280;4876;42.656;23.292;2024-02-28T11:11:30;94746.56;;;14.41;46.33
9676;BME280;4876;42.656;23.292;2024-02-28T11:13:58;94743.63;;;14.25;46.82
9676;BME280;4876;42.656;23.292;2024-02-28T11:16:32;94754.44;;;14.58;45.20
9676;BME280;4876;42.656;23.292;2024-02-28T11:18:59;94743.22;;;14.31;46.03
9676;BME280;4876;42.656;23.292;2024-02-28T11:21:26;94733.97;;;14.40;45.40
9676;BME280;4876;42.656;23.292;2024-02-28T11:23:57;94736.03;;;14.53;45.19
9676;BME280;4876;42.656;23.292;2024-02-28T11:26:23;94731.78;;;14.79;43.25
9676;BME280;4876;42.656;23.292;2024-02-28T11:28:50;94726.69;;;14.89;43.41
9676;BME280;4876;42.656;23.292;2024-02-28T11:31:15;94720.59;;;14.93;43.30
9676;BME280;4876;42.656;23.292;2024-02-28T11:33:41;94718.22;;;14.87;42.95
9676;BME280;4876;42.656;23.292;2024-02-28T11:36:07;94719.13;;;15.05;41.91
9676;BME280;4876;42.656;23.292;2024-02-28T11:38:36;94721.47;;;15.24;41.88
9676;BME280;4876;42.656;23.292;2024-02-28T11:41:05;94704.69;;;15.24;41.56
9676;BME280;4876;42.656;23.292;2024-02-28T11:43:31;94707.97;;;15.48;41.52
9676;BME280;4876;42.656;23.292;2024-02-28T11:45:58;94723.09;;;15.72;40.41
9676;BME280;4876;42.656;23.292;2024-02-28T11:48:24;94713.06;;;15.24;40.75
9676;BME280;4876;42.656;23.292;2024-02-28T11:50:51;94714.38;;;15.37;40.25
9676;BME280;4876;42.656;23.292;2024-02-28T11:53:16;94704.59;;;15.52;40.33
9676;BME280;4876;42.656;23.292;2024-02-28T11:55:42;94700.34;;;15.21;41.05
9676;BME280;4876;42.656;23.292;2024-02-28T11:58:08;94701.34;;;15.28;40.77
9676;BME280;4876;42.656;23.292;2024-02-28T12:00:34;94696.19;;;15.22;40.48
9676;BME280;4876;42.656;23.292;2024-02-28T12:03:06;94694.69;;;15.19;40.86
9676;BME280;4876;42.656;23.292;2024-02-28T12:05:31;94698.16;;;15.20;41.15
9676;BME280;4876;42.656;23.292;2024-02-28T12:07:57;94689.84;;;15.36;41.11
9676;BME280;4876;42.656;23.292;2024-02-28T12:10:23;94691.38;;;15.39;40.84
9676;BME280;4876;42.656;23.292;2024-02-28T12:12:49;94690.25;;;15.14;40.39
9676;BME280;4876;42.656;23.292;2024-02-28T12:15:15;94691.31;;;14.94;41.68
9676;BME280;4876;42.656;23.292;2024-02-28T12:17:42;94675.19;;;14.79;42.23
9676;BME280;4876;42.656;23.292;2024-02-28T12:20:08;94676.34;;;14.87;42.77
9676;BME280;4876;42.656;23.292;2024-02-28T12:22:34;94669.00;;;15.09;41.08
9676;BME280;4876;42.656;23.292;2024-02-28T12:24:59;94680.03;;;14.92;41.07
9676;BME280;4876;42.656;23.292;2024-02-28T12:27:29;94679.97;;;14.76;41.70
9676;BME280;4876;42.656;23.292;2024-02-28T12:29:56;94670.25;;;14.77;41.17
9676;BME280;4876;42.656;23.292;2024-02-28T12:32:22;94667.53;;;14.93;40.85
9676;BME280;4876;42.656;23.292;2024-02-28T12:34:47;94675.66;;;15.02;41.01
9676;BME280;4876;42.656;23.292;2024-02-28T12:37:13;94670.00;;;15.00;42.03
9676;BME280;4876;42.656;23.292;2024-02-28T12:39:38;94676.09;;;14.97;41.89
9676;BME280;4876;42.656;23.292;2024-02-28T12:42:04;94671.63;;;15.05;41.67
9676;BME280;4876;42.656;23.292;2024-02-28T12:44:30;94663.03;;;15.01;42.58
9676;BME280;4876;42.656;23.292;2024-02-28T12:46:55;94665.66;;;15.26;41.48
9676;BME280;4876;42.656;23.292;2024-02-28T12:49:21;94664.50;;;15.31;41.58
9676;BME280;4876;42.656;23.292;2024-02-28T12:51:46;94654.63;;;15.15;42.54
9676;BME280;4876;42.656;23.292;2024-02-28T12:54:14;94656.94;;;15.05;42.91
9676;BME280;4876;42.656;23.292;2024-02-28T12:56:40;94667.50;;;15.06;43.72
9676;BME280;4876;42.656;23.292;2024-02-28T12:59:08;94661.59;;;15.00;43.81
9676;BME280;4876;42.656;23.292;2024-02-28T13:01:34;94663.16;;;15.03;43.69
9676;BME280;4876;42.656;23.292;2024-02-28T13:04:00;94666.94;;;15.10;44.03
9676;BME280;4876;42.656;23.292;2024-02-28T13:06:26;94659.59;;;15.16;44.17
9676;BME280;4876;42.656;23.292;2024-02-28T13:08:52;94669.31;;;15.15;43.75
9676;BME280;4876;42.656;23.292;2024-02-28T13:11:19;94663.78;;;15.31;43.90
9676;BME280;4876;42.656;23.292;2024-02-28T13:13:48;94670.25;;;15.36;44.89